createdAt,value
2022-10-21T00:02:21.449Z,30.63
2022-10-21T00:04:49.986Z,31.20
2022-10-21T00:07:18.739Z,31.77
2022-10-21T00:09:48.600Z,30.85
2022-10-21T00:12:17.427Z,31.70
2022-10-21T00:14:45.940Z,35.67
2022-10-21T00:17:14.813Z,34.72
2022-10-21T00:19:43.315Z,33.80
2022-10-21T00:22:12.085Z,34.83
2022-10-21T00:24:40.620Z,31.48
2022-10-21T00:27:10.696Z,33.50
2022-10-21T00:29:39.273Z,30.63
2022-10-21T00:32:08.045Z,32.67
2022-10-21T00:34:36.564Z,32.47
2022-10-21T00:37:05.307Z,31.43
2022-10-21T00:39:33.922Z,37.03
2022-10-21T00:42:02.747Z,37.07
2022-10-21T00:44:33.343Z,33.73
2022-10-21T00:47:08.649Z,35.50
2022-10-21T00:49:42.377Z,36.13
2022-10-21T00:52:17.203Z,32.88
2022-10-21T00:54:48.110Z,31.30
2022-10-21T00:57:19.425Z,31.50
2022-10-21T00:59:54.839Z,36.27
2022-10-21T01:02:23.945Z,32.22
2022-10-21T01:04:59.431Z,31.00
2022-10-21T01:07:28.715Z,29.57
2022-10-21T01:09:57.261Z,32.63
2022-10-21T01:12:36.621Z,34.83
2022-10-21T01:15:19.180Z,27.70
2022-10-21T01:17:57.817Z,34.20
2022-10-21T01:21:11.509Z,31.37
2022-10-21T01:24:28.505Z,31.03
2022-10-21T01:27:28.725Z,35.57
2022-10-21T01:30:38.789Z,30.10
2022-10-21T01:33:39.385Z,27.57
2022-10-21T01:36:26.241Z,33.50
2022-10-21T01:39:16.213Z,32.27
2022-10-21T01:41:55.859Z,31.17
2022-10-21T01:44:30.601Z,30.37
2022-10-21T01:47:06.533Z,32.73
2022-10-21T01:49:42.140Z,29.17
2022-10-21T01:52:13.581Z,31.03
2022-10-21T01:54:46.657Z,29.07
2022-10-21T01:57:22.011Z,29.97
2022-10-21T01:59:52.971Z,32.23
2022-10-21T02:02:28.343Z,30.77
2022-10-21T02:04:59.625Z,29.23
2022-10-21T02:07:29.710Z,31.70
2022-10-21T02:09:58.340Z,28.43
2022-10-21T02:12:31.593Z,30.37
2022-10-21T02:15:03.937Z,29.67
2022-10-21T02:17:39.057Z,29.03
2022-10-21T02:20:12.296Z,32.57
2022-10-21T02:22:47.219Z,33.83
2022-10-21T02:25:21.974Z,31.63
2022-10-21T02:27:53.293Z,32.87
2022-10-21T02:30:22.506Z,31.93
2022-10-21T02:33:01.399Z,38.27
2022-10-21T02:35:40.050Z,31.13
2022-10-21T02:38:23.831Z,29.73
2022-10-21T02:40:59.032Z,29.43
2022-10-21T02:43:33.376Z,32.50
2022-10-21T02:46:10.527Z,30.43
2022-10-21T02:48:45.202Z,30.03
2022-10-21T02:51:14.824Z,31.27
2022-10-21T02:53:43.882Z,32.23
2022-10-21T02:56:12.390Z,34.40
2022-10-21T02:58:41.096Z,28.30
2022-10-21T03:01:09.750Z,30.33
2022-10-21T03:03:39.881Z,30.77
2022-10-21T03:06:08.393Z,28.53
2022-10-21T03:08:37.224Z,28.53
2022-10-21T03:11:05.978Z,28.03
2022-10-21T03:13:34.725Z,29.00
2022-10-21T03:16:03.326Z,29.97
2022-10-21T03:18:32.054Z,30.37
2022-10-21T03:21:02.030Z,24.73
2022-10-21T03:23:30.888Z,30.77
2022-10-21T03:25:59.404Z,28.87
2022-10-21T03:28:28.105Z,27.87
2022-10-21T03:30:56.852Z,25.70
2022-10-21T03:33:25.632Z,24.97
2022-10-21T03:35:54.169Z,26.23
2022-10-21T03:38:24.372Z,24.17
2022-10-21T03:40:53.024Z,29.23
2022-10-21T03:43:21.778Z,26.47
2022-10-21T03:45:50.359Z,27.47
2022-10-21T03:48:19.245Z,24.93
2022-10-21T03:50:47.836Z,25.20
2022-10-21T03:53:30.857Z,26.73
2022-10-21T03:56:07.617Z,27.03
2022-10-21T03:58:36.381Z,26.63
2022-10-21T04:01:05.317Z,27.47
2022-10-21T04:03:34.072Z,25.20
2022-10-21T04:06:02.589Z,26.57
2022-10-21T04:08:31.596Z,29.03
2022-10-21T04:11:00.851Z,27.70
2022-10-21T04:13:31.513Z,27.07
2022-10-21T04:16:01.324Z,25.40
2022-10-21T04:18:30.153Z,26.70
2022-10-21T04:20:58.672Z,25.20
2022-10-21T04:23:27.413Z,24.97
2022-10-21T04:25:55.889Z,26.10
2022-10-21T04:28:24.614Z,25.83
2022-10-21T04:30:54.509Z,25.60
2022-10-21T04:33:23.455Z,26.20
2022-10-21T04:35:51.984Z,29.27
2022-10-21T04:38:20.803Z,27.03
2022-10-21T04:40:49.345Z,27.37
2022-10-21T04:43:18.184Z,29.40
2022-10-21T04:45:46.691Z,28.73
2022-10-21T04:48:16.870Z,30.33
2022-10-21T04:50:45.801Z,26.87
2022-10-21T04:53:14.505Z,28.90
2022-10-21T04:55:42.977Z,26.60
2022-10-21T04:58:12.257Z,29.03
2022-10-21T05:00:40.862Z,26.03
2022-10-21T05:03:09.587Z,29.30
2022-10-21T05:05:39.720Z,28.60
2022-10-21T05:08:11.510Z,26.27
2022-10-21T05:10:40.462Z,26.43
2022-10-21T05:13:09.200Z,28.10
2022-10-21T05:15:37.771Z,26.83
2022-10-21T05:18:06.598Z,25.70
2022-10-21T05:20:35.140Z,26.13
2022-10-21T05:23:05.256Z,29.67
2022-10-21T05:25:34.488Z,26.07
2022-10-21T05:28:03.362Z,29.83
2022-10-21T05:30:32.055Z,26.00
2022-10-21T05:33:01.000Z,26.53
2022-10-21T05:35:29.620Z,25.00
2022-10-21T05:37:58.355Z,29.03
2022-10-21T05:40:28.608Z,26.13
2022-10-21T05:42:57.474Z,26.37
2022-10-21T05:45:27.102Z,27.67
2022-10-21T05:47:55.990Z,25.37
2022-10-21T05:50:24.685Z,26.23
2022-10-21T05:52:54.756Z,26.93
2022-10-21T05:55:24.243Z,27.53
2022-10-21T05:57:54.415Z,30.97
2022-10-21T06:00:22.958Z,26.97
2022-10-21T06:02:51.713Z,24.23
2022-10-21T06:05:21.052Z,25.80
2022-10-21T06:07:49.865Z,25.80
2022-10-21T06:10:18.654Z,27.07
2022-10-21T06:12:47.392Z,22.40
2022-10-21T06:15:17.466Z,26.40
2022-10-21T06:17:46.226Z,25.33
2022-10-21T06:20:14.766Z,24.83
2022-10-21T06:22:43.485Z,22.40
2022-10-21T06:25:12.168Z,23.73
2022-10-21T06:27:41.327Z,25.80
2022-10-21T06:30:11.733Z,24.53
2022-10-21T06:32:41.870Z,25.80
2022-10-21T06:35:10.629Z,21.77
2022-10-21T06:37:39.839Z,23.03
2022-10-21T06:40:10.046Z,25.60
2022-10-21T06:42:38.809Z,24.60
2022-10-21T06:45:08.745Z,21.73
2022-10-21T06:47:37.924Z,23.40
2022-10-21T06:50:09.326Z,20.80
2022-10-21T06:52:38.021Z,22.33
2022-10-21T06:55:07.432Z,22.70
2022-10-21T06:57:36.457Z,20.97
2022-10-21T07:00:07.609Z,21.85
2022-10-21T07:02:37.152Z,22.75
2022-10-21T07:05:08.968Z,23.40
2022-10-21T07:07:37.982Z,19.97
2022-10-21T07:10:07.462Z,21.85
2022-10-21T07:12:36.399Z,21.07
2022-10-21T07:15:05.872Z,22.40
2022-10-21T07:17:34.683Z,20.73
2022-10-21T07:20:03.242Z,19.47
2022-10-21T07:22:34.216Z,20.05
2022-10-21T07:25:03.093Z,20.13
2022-10-21T07:27:31.901Z,17.77
2022-10-21T07:30:00.812Z,18.97
2022-10-21T07:32:30.117Z,18.33
2022-10-21T07:34:58.895Z,20.63
2022-10-21T07:37:27.757Z,16.50
2022-10-21T07:39:57.700Z,20.05
2022-10-21T07:42:26.585Z,18.13
2022-10-21T07:44:59.908Z,21.20
2022-10-21T07:47:28.750Z,21.73
2022-10-21T07:49:57.717Z,18.27
2022-10-21T07:52:27.547Z,18.83
2022-10-21T07:54:57.393Z,18.25
2022-10-21T07:57:26.233Z,18.63
2022-10-21T07:59:54.917Z,20.08
2022-10-21T08:02:24.820Z,19.80
2022-10-21T08:04:56.011Z,18.58
2022-10-21T08:07:24.844Z,19.40
2022-10-21T08:09:53.444Z,18.63
2022-10-21T08:12:23.579Z,17.30
2022-10-21T08:14:52.365Z,17.63
2022-10-21T08:17:21.138Z,19.42
2022-10-21T08:19:49.953Z,17.42
2022-10-21T08:22:19.145Z,17.05
2022-10-21T08:24:47.632Z,17.63
2022-10-21T08:27:16.457Z,19.20
2022-10-21T08:29:48.655Z,19.38
2022-10-21T08:32:17.409Z,19.25
2022-10-21T08:34:45.966Z,16.50
2022-10-21T08:37:14.728Z,18.55
2022-10-21T08:39:43.314Z,17.35
2022-10-21T08:42:17.461Z,16.25
2022-10-21T08:44:56.664Z,18.95
2022-10-21T08:47:37.973Z,16.92
2022-10-21T08:50:15.017Z,15.27
2022-10-21T08:52:48.668Z,13.80
2022-10-21T08:55:24.082Z,15.98
2022-10-21T08:57:54.739Z,14.20
2022-10-21T09:00:32.168Z,14.82
2022-10-21T09:03:17.374Z,17.80
2022-10-21T09:06:25.918Z,15.57
2022-10-21T09:09:11.098Z,14.13
2022-10-21T09:11:58.843Z,17.10
2022-10-21T09:15:11.625Z,19.80
2022-10-21T09:18:09.483Z,15.90
2022-10-21T09:20:57.138Z,16.58
2022-10-21T09:23:43.672Z,17.67
2022-10-21T09:26:30.183Z,16.77
2022-10-21T09:29:02.017Z,16.40
2022-10-21T09:31:31.166Z,14.70
2022-10-21T09:34:16.229Z,20.00
2022-10-21T09:36:48.987Z,16.23
2022-10-21T09:39:27.031Z,14.60
2022-10-21T09:42:03.807Z,16.40
2022-10-21T09:44:41.479Z,15.13
2022-10-21T09:47:21.768Z,15.63
2022-10-21T09:50:13.315Z,16.52
2022-10-21T09:52:50.412Z,13.73
2022-10-21T09:55:19.876Z,18.52
2022-10-21T09:57:57.298Z,17.05
2022-10-21T10:00:45.989Z,13.93
2022-10-21T10:03:31.393Z,15.75
2022-10-21T10:06:03.582Z,14.35
2022-10-21T10:08:39.642Z,17.70
2022-10-21T10:11:21.990Z,14.25
2022-10-21T10:13:53.237Z,16.08
2022-10-21T10:16:27.753Z,14.80
2022-10-21T10:19:17.245Z,14.90
2022-10-21T10:21:51.381Z,13.43
2022-10-21T10:24:22.877Z,15.38
2022-10-21T10:26:51.593Z,17.88
2022-10-21T10:29:27.398Z,19.80
2022-10-21T10:32:00.345Z,19.25
2022-10-21T10:34:34.933Z,15.50
2022-10-21T10:37:09.280Z,13.43
2022-10-21T10:39:40.979Z,16.42
2022-10-21T10:42:10.011Z,15.55
2022-10-21T10:44:43.394Z,15.93
2022-10-21T10:47:23.963Z,16.98
2022-10-21T10:49:53.195Z,13.05
2022-10-21T10:52:25.566Z,14.85
2022-10-21T10:55:19.258Z,14.82
2022-10-21T10:58:10.399Z,15.63
2022-10-21T11:00:47.954Z,12.13
2022-10-21T11:03:26.295Z,12.15
2022-10-21T11:06:08.093Z,17.02
2022-10-21T11:08:46.976Z,16.05
2022-10-21T11:11:25.670Z,13.88
2022-10-21T11:13:54.820Z,15.48
2022-10-21T11:17:00.093Z,13.68
2022-10-21T11:19:41.876Z,14.02
2022-10-21T11:22:22.676Z,13.95
2022-10-21T11:25:05.482Z,14.40
2022-10-21T11:28:10.136Z,13.15
2022-10-21T11:30:59.557Z,13.43
2022-10-21T11:33:45.245Z,12.65
2022-10-21T11:36:28.819Z,14.55
2022-10-21T11:39:44.743Z,13.23
2022-10-21T11:42:23.949Z,11.63
2022-10-21T11:45:11.057Z,12.02
2022-10-21T11:47:53.314Z,12.00
2022-10-21T11:50:35.673Z,12.68
2022-10-21T11:53:23.661Z,14.88
2022-10-21T11:56:08.836Z,14.07
2022-10-21T11:58:58.055Z,11.90
2022-10-21T12:01:42.783Z,13.40
2022-10-21T12:04:29.125Z,13.55
2022-10-21T12:07:18.655Z,14.30
2022-10-21T12:09:55.181Z,12.88
2022-10-21T12:12:32.467Z,14.60
2022-10-21T12:15:12.419Z,15.95
2022-10-21T12:17:41.970Z,14.63
2022-10-21T12:20:23.916Z,13.38
2022-10-21T12:23:04.689Z,15.88
2022-10-21T12:25:46.612Z,14.73
2022-10-21T12:28:27.579Z,14.30
2022-10-21T12:31:12.567Z,14.82
2022-10-21T12:33:46.033Z,14.10
2022-10-21T12:36:38.586Z,17.17
2022-10-21T12:39:16.735Z,18.13
2022-10-21T12:41:47.874Z,15.10
2022-10-21T12:44:27.492Z,14.80
2022-10-21T12:47:02.734Z,18.02
2022-10-21T12:49:35.833Z,16.88
2022-10-21T12:52:11.423Z,19.23
2022-10-21T12:54:55.397Z,17.92
2022-10-21T12:57:29.778Z,17.58
2022-10-21T13:00:52.077Z,16.58
2022-10-21T13:03:24.403Z,17.83
2022-10-21T13:06:07.665Z,13.10
2022-10-21T13:08:51.602Z,15.02
2022-10-21T13:11:38.795Z,18.02
2022-10-21T13:14:44.623Z,16.42
2022-10-21T13:17:50.019Z,15.52
2022-10-21T13:20:59.640Z,15.38
2022-10-21T13:23:45.207Z,14.75
2022-10-21T13:26:25.568Z,16.38
2022-10-21T13:29:06.480Z,18.55
2022-10-21T13:31:35.804Z,15.85
2022-10-21T13:34:05.241Z,14.27
2022-10-21T13:36:43.651Z,16.60
2022-10-21T13:39:28.810Z,15.82
2022-10-21T13:42:03.438Z,14.00
2022-10-21T13:44:37.004Z,14.75
2022-10-21T13:47:29.163Z,14.25
2022-10-21T13:50:11.616Z,12.70
2022-10-21T13:52:44.997Z,11.60
2022-10-21T13:55:21.779Z,13.88
2022-10-21T13:57:53.593Z,11.48
2022-10-21T14:00:25.855Z,14.07
2022-10-21T14:03:01.873Z,14.32
2022-10-21T14:05:36.128Z,12.15
2022-10-21T14:08:15.362Z,9.85
2022-10-21T14:10:47.682Z,10.93
2022-10-21T14:13:16.559Z,12.93
2022-10-21T14:15:46.633Z,14.40
2022-10-21T14:18:37.248Z,17.17
2022-10-21T14:21:09.093Z,15.95
2022-10-21T14:23:39.970Z,15.15
2022-10-21T14:26:10.589Z,13.15
2022-10-21T14:28:40.109Z,13.35
2022-10-21T14:31:12.827Z,12.27
2022-10-21T14:33:45.242Z,13.18
2022-10-21T14:36:19.820Z,12.82
2022-10-21T14:39:00.535Z,14.75
2022-10-21T14:41:35.568Z,12.30
2022-10-21T14:44:17.091Z,16.67
2022-10-21T14:46:50.630Z,14.43
2022-10-21T14:49:25.286Z,11.32
2022-10-21T14:52:02.661Z,12.63
2022-10-21T14:54:43.696Z,13.55
2022-10-21T14:57:41.643Z,14.07
2022-10-21T15:00:29.016Z,14.63
2022-10-21T15:03:01.204Z,14.13
2022-10-21T15:05:41.436Z,14.57
2022-10-21T15:08:28.938Z,14.38
2022-10-21T15:11:23.718Z,13.30
2022-10-21T15:14:06.375Z,13.90
2022-10-21T15:16:37.013Z,16.25
2022-10-21T15:19:16.671Z,16.25
2022-10-21T15:21:50.655Z,14.68
2022-10-21T15:24:24.590Z,14.32
2022-10-21T15:26:55.651Z,14.40
2022-10-21T15:29:33.834Z,14.07
2022-10-21T15:32:03.567Z,14.70
2022-10-21T15:34:32.796Z,13.55
2022-10-21T15:37:01.490Z,14.75
2022-10-21T15:39:30.783Z,11.85
2022-10-21T15:42:01.816Z,12.73
2022-10-21T15:44:32.617Z,13.30
2022-10-21T15:47:08.409Z,15.50
2022-10-21T15:49:41.252Z,13.00
2022-10-21T15:52:10.407Z,15.35
2022-10-21T15:54:39.110Z,15.38
2022-10-21T15:57:18.174Z,19.67
2022-10-21T15:59:48.550Z,14.65
2022-10-21T16:02:18.781Z,16.60
2022-10-21T16:04:47.836Z,16.42
2022-10-21T16:07:21.365Z,14.75
2022-10-21T16:09:50.928Z,15.95
2022-10-21T16:12:23.298Z,16.90
2022-10-21T16:14:52.376Z,16.73
2022-10-21T16:17:23.734Z,21.13
2022-10-21T16:19:52.669Z,16.33
2022-10-21T16:22:23.698Z,20.80
2022-10-21T16:24:53.534Z,20.60
2022-10-21T16:27:43.450Z,22.70
2022-10-21T16:30:19.456Z,23.60
2022-10-21T16:32:48.383Z,19.23
2022-10-21T16:35:20.215Z,17.42
2022-10-21T16:37:49.957Z,17.95
2022-10-21T16:40:23.456Z,18.58
2022-10-21T16:42:54.159Z,18.08
2022-10-21T16:45:29.603Z,16.98
2022-10-21T16:48:01.592Z,19.85
2022-10-21T16:50:40.523Z,20.75
2022-10-21T16:53:14.656Z,22.80
2022-10-21T16:55:43.556Z,18.65
2022-10-21T16:58:13.680Z,18.20
2022-10-21T17:00:42.581Z,19.48
2022-10-21T17:03:12.725Z,20.25
2022-10-21T17:05:41.532Z,21.15
2022-10-21T17:08:10.072Z,18.92
2022-10-21T17:10:38.832Z,19.48
2022-10-21T17:13:07.356Z,20.45
2022-10-21T17:15:37.524Z,17.15
2022-10-21T17:18:06.626Z,20.05
2022-10-21T17:20:35.556Z,21.17
2022-10-21T17:23:04.314Z,20.08
2022-10-21T17:25:33.156Z,20.33
2022-10-21T17:28:01.656Z,18.63
2022-10-21T17:30:30.501Z,23.02
2022-10-21T17:33:00.410Z,20.80
2022-10-21T17:35:29.216Z,18.75
2022-10-21T17:37:57.833Z,21.67
2022-10-21T17:40:28.116Z,17.67
2022-10-21T17:42:58.387Z,20.15
2022-10-21T17:45:27.863Z,22.80
2022-10-21T17:47:56.436Z,22.02
2022-10-21T17:50:26.754Z,22.08
2022-10-21T17:52:55.869Z,19.60
2022-10-21T17:55:24.668Z,23.92
2022-10-21T17:57:53.202Z,23.08
2022-10-21T18:00:22.182Z,21.48
2022-10-21T18:02:50.726Z,23.40
2022-10-21T18:05:19.894Z,32.15
2022-10-21T18:07:49.772Z,38.88
2022-10-21T18:10:18.630Z,37.42
2022-10-21T18:12:47.154Z,32.80
2022-10-21T18:15:16.101Z,31.35
2022-10-21T18:17:44.624Z,27.48
2022-10-21T18:20:13.915Z,28.17
2022-10-21T18:22:42.810Z,29.50
2022-10-21T18:25:13.298Z,28.83
2022-10-21T18:30:15.991Z,29.58
2022-10-21T18:32:44.517Z,33.20
2022-10-21T18:35:14.986Z,32.13
2022-10-21T18:37:43.650Z,33.72
2022-10-21T18:40:14.812Z,30.25
2022-10-21T18:42:43.371Z,31.88
2022-10-21T18:45:12.446Z,30.15
2022-10-21T18:47:42.061Z,29.73
2022-10-21T18:50:12.451Z,34.28
2022-10-21T18:52:41.109Z,32.90
2022-10-21T18:55:10.644Z,32.58
2022-10-21T18:57:40.667Z,32.00
2022-10-21T19:00:10.936Z,28.65
2022-10-21T19:02:39.518Z,27.40
2022-10-21T19:05:09.119Z,30.02
2022-10-21T19:07:37.869Z,25.23
2022-10-21T19:10:08.639Z,30.25
2022-10-21T19:12:37.216Z,27.98
2022-10-21T19:15:09.333Z,26.50
2022-10-21T19:17:39.800Z,23.48
2022-10-21T19:20:10.072Z,24.73
2022-10-21T19:22:38.659Z,29.33
2022-10-21T19:25:08.850Z,29.77
2022-10-21T19:27:37.729Z,29.90
2022-10-21T19:30:09.661Z,30.77
2022-10-21T19:32:38.490Z,34.20
2022-10-21T19:35:07.768Z,26.95
2022-10-21T19:37:36.618Z,29.17
2022-10-21T19:40:06.619Z,26.35
2022-10-21T19:42:35.201Z,26.80
2022-10-21T19:45:04.153Z,23.83
2022-10-21T19:47:34.033Z,26.85
2022-10-21T19:50:03.007Z,27.02
2022-10-21T19:52:31.617Z,30.92
2022-10-21T19:55:00.329Z,27.27
2022-10-21T19:57:28.836Z,30.27
2022-10-21T19:59:57.533Z,28.52
2022-10-21T20:02:26.045Z,31.63
2022-10-21T20:04:56.163Z,29.65
2022-10-21T20:07:24.703Z,28.20
2022-10-21T20:09:53.454Z,31.65
2022-10-21T20:12:21.968Z,31.05
2022-10-21T20:14:50.699Z,31.75
2022-10-21T20:17:19.242Z,32.58
2022-10-21T20:19:49.128Z,35.92
2022-10-21T20:22:19.065Z,36.65
2022-10-21T20:24:47.811Z,34.53
2022-10-21T20:27:16.439Z,33.85
2022-10-21T20:29:45.328Z,39.25
2022-10-21T20:32:13.918Z,32.88
2022-10-21T20:34:43.529Z,34.45
2022-10-21T20:37:12.058Z,32.15
2022-10-21T20:39:42.322Z,36.53
2022-10-21T20:42:11.054Z,32.38
2022-10-21T20:44:40.079Z,33.72
2022-10-21T20:47:08.709Z,32.45
2022-10-21T20:49:37.552Z,31.42
2022-10-21T20:52:06.146Z,26.75
2022-10-21T20:54:35.206Z,25.80
2022-10-21T20:57:05.730Z,28.85
2022-10-21T20:59:34.678Z,25.80
2022-10-21T21:02:03.217Z,28.92
2022-10-21T21:04:32.402Z,31.45
2022-10-21T21:07:01.014Z,29.75
2022-10-21T21:09:50.187Z,30.63
2022-10-21T21:12:20.321Z,30.63
2022-10-21T21:14:49.166Z,29.33
2022-10-21T21:17:18.271Z,29.48
2022-10-21T21:19:46.993Z,31.63
2022-10-21T21:22:15.545Z,28.17
2022-10-21T21:24:44.273Z,27.98
2022-10-21T21:27:12.786Z,30.83
2022-10-21T21:29:43.028Z,30.70
2022-10-21T21:32:11.557Z,26.75
2022-10-21T21:34:40.293Z,31.58
2022-10-21T21:37:08.805Z,30.63
2022-10-21T21:39:37.514Z,34.65
2022-10-21T21:42:06.097Z,30.77
2022-10-21T21:44:34.970Z,30.27
2022-10-21T21:47:04.820Z,29.92
2022-10-21T21:49:33.627Z,29.83
2022-10-21T21:52:02.222Z,30.33
2022-10-21T21:54:31.018Z,30.00
2022-10-21T21:57:26.264Z,30.48
2022-10-21T21:59:48.375Z,28.65
2022-10-21T22:02:18.377Z,28.33
2022-10-21T22:04:47.589Z,30.60
2022-10-21T22:07:16.175Z,31.30
2022-10-21T22:09:44.918Z,30.73
2022-10-21T22:12:14.692Z,32.08
2022-10-21T22:14:44.098Z,30.25
2022-10-21T22:17:12.736Z,30.27
2022-10-21T22:19:42.904Z,39.88
2022-10-21T22:22:11.499Z,30.13
2022-10-21T22:24:40.270Z,34.10
2022-10-21T22:27:08.904Z,31.98
2022-10-21T22:29:37.717Z,33.35
2022-10-21T22:32:06.535Z,33.28
2022-10-21T22:34:35.337Z,32.45
2022-10-21T22:37:05.410Z,32.20
2022-10-21T22:39:34.121Z,31.70
2022-10-21T22:42:02.939Z,30.15
2022-10-21T22:44:31.678Z,29.35
2022-10-21T22:47:00.206Z,34.63
2022-10-21T22:49:28.966Z,31.30
2022-10-21T22:51:57.468Z,34.90
2022-10-21T22:54:48.168Z,32.70
2022-10-21T22:57:16.138Z,31.10
2022-10-21T22:59:48.295Z,31.42
2022-10-21T23:02:19.245Z,30.23
2022-10-21T23:04:47.964Z,32.28
2022-10-21T23:07:16.508Z,30.77
2022-10-21T23:09:46.573Z,29.80
2022-10-21T23:12:15.465Z,30.67
2022-10-21T23:14:44.499Z,31.00
2022-10-21T23:17:13.147Z,28.38
2022-10-21T23:19:41.860Z,34.20
2022-10-21T23:22:11.008Z,32.08
2022-10-21T23:24:39.819Z,38.88
2022-10-21T23:27:09.724Z,30.35
2022-10-21T23:29:38.658Z,32.60
2022-10-21T23:32:07.364Z,33.08
2022-10-21T23:34:36.122Z,28.67
2022-10-21T23:37:04.718Z,32.35
2022-10-21T23:39:33.613Z,31.05
2022-10-21T23:42:02.206Z,28.98
2022-10-21T23:44:32.319Z,30.58
2022-10-21T23:47:00.940Z,33.15
2022-10-21T23:49:29.788Z,30.88
2022-10-21T23:51:59.199Z,29.17
2022-10-21T23:54:27.909Z,27.77
2022-10-21T23:56:56.434Z,28.52
2022-10-21T23:59:25.152Z,27.85
